Bogalusa, LA

8:26 PM CST on February 24, 2018 (GMT -0600)
Carr Memorial

Weather History for KBXA - March, 2014

Change the Weather History Date:

Thursday, March 6, 2014

  Actual Average Record
Temperature  
Mean Temperature 50 °F -  
Max Temperature 54 °F 68 °F 78 °F (2016)
Min Temperature 45 °F 42 °F 27 °F (2015)
Degree Days  
Heating Degree Days 16    
Moisture  
Dew Point 47 °F    
Average Humidity 87    
Maximum Humidity 91    
Minimum Humidity 84    
Precipitation  
Precipitation 0.08 in - - ()
Sea Level Pressure  
Sea Level Pressure 30.00 in    
Wind  
Wind Speed 5 mph (North)    
Max Wind Speed 13 mph    
Max Gust Speed 20 mph    
Visibility 9 miles    
Events Rain    
Averages and records for this station are not official NWS values.
T = Trace of Precipitation, MM = Missing Value Source: NWS Daily Summary

Daily Weather History Graph

Daily Weather History Graph

Search for Another Location

Airport or City:

Trip Planner

Search our weather history database for the weather conditions in past years. The results will help you decide how hot, cold, wet, or windy it might be!

Date:

Astronomy

Mar. 06, 2014 Rise Set
Actual Time 6:20 AM CST 6:01 PM CST
Civil Twilight 5:56 AM CST 6:25 PM CST
Nautical Twilight 5:28 AM CST 6:53 PM CST
Astronomical Twilight 5:00 AM CST 7:21 PM CST
Moon 9:50 AM CST (3/6) 11:43 PM CST (3/6)
Length of Visible Light 12h 29m
Length of Day
11h 41m
Waxing Crescent, 32% of the Moon is Illuminated
Mar 6
Waxing Crescent
Mar 8
First Quarter
Mar 16
Full
Mar 23
Last Quarter
Mar 30
New

Hourly Weather History & Observations

Time (CST) Temp. Windchill Dew Point Humidity Pressure Visibility Wind Dir Wind Speed Gust Speed Precip Events Conditions
12:15 AM 52.0 °F - 47.8 °F 86% 30.01 in 10.0 mi Calm Calm - N/A   Unknown
12:35 AM 51.8 °F - 48.2 °F 88% 30.00 in 10.0 mi NNW 3.5 mph - N/A   Unknown
12:55 AM 51.8 °F - 48.2 °F 88% 30.01 in 10.0 mi Calm Calm - N/A   Unknown
1:15 AM 51.8 °F - 48.2 °F 88% 30.00 in 10.0 mi NNW 3.5 mph - N/A   Unknown
1:35 AM 52.0 °F - 48.2 °F 87% 30.00 in 10.0 mi Calm Calm - N/A   Unknown
1:55 AM 52.3 °F - 48.2 °F 86% 29.98 in 10.0 mi NNE 3.5 mph - N/A   Unknown
2:15 AM 52.7 °F - 48.2 °F 85% 29.98 in 10.0 mi Calm Calm - N/A   Unknown
2:35 AM 52.5 °F - 48.2 °F 85% 29.99 in 10.0 mi Calm Calm - N/A   Unknown
2:55 AM 52.7 °F - 48.4 °F 85% 29.98 in 10.0 mi Calm Calm - N/A   Unknown
3:15 AM 52.7 °F - 48.4 °F 85% 29.97 in 10.0 mi North 3.5 mph - N/A   Unknown
3:35 AM 52.5 °F - 48.2 °F 85% 29.95 in 10.0 mi NE 4.6 mph - N/A   Unknown
3:55 AM 52.9 °F - 48.2 °F 84% 29.96 in 10.0 mi Calm Calm - N/A   Unknown
4:15 AM 52.7 °F - 48.4 °F 85% 29.96 in 10.0 mi NW 3.5 mph - N/A   Unknown
4:35 AM 52.7 °F - 48.4 °F 85% 29.97 in 10.0 mi Calm Calm - N/A   Unknown
4:55 AM 52.7 °F - 48.6 °F 86% 29.98 in 10.0 mi NNW 3.5 mph - N/A   Unknown
5:15 AM 52.9 °F - 48.6 °F 85% 29.98 in 10.0 mi NNW 4.6 mph - N/A   Unknown
5:35 AM 52.7 °F - 48.6 °F 86% 29.98 in 10.0 mi NNE 3.5 mph - 0.01 in Rain Light Rain
5:55 AM 52.5 °F - 49.1 °F 88% 29.99 in 10.0 mi North 5.8 mph - 0.01 in   Light Drizzle
6:15 AM 52.3 °F - 49.1 °F 89% 30.00 in 7.0 mi North 4.6 mph - N/A   Light Drizzle
6:35 AM 52.2 °F - 49.1 °F 89% 30.01 in 10.0 mi North 4.6 mph - N/A   Unknown
6:55 AM 52.3 °F - 49.3 °F 89% 30.01 in 7.0 mi North 4.6 mph - N/A   Unknown
7:15 AM 52.3 °F - 49.3 °F 89% 30.01 in 4.0 mi North 4.6 mph - N/A   Mist
7:35 AM 52.7 °F - 50.0 °F 91% 30.01 in 2.5 mi North 5.8 mph - N/A Rain Light Rain
7:55 AM 53.1 °F - 50.2 °F 90% 30.00 in 4.0 mi NNE 5.8 mph - N/A   Overcast
8:15 AM 53.1 °F - 49.8 °F 89% 30.00 in 7.0 mi North - - N/A   Scattered Clouds
8:35 AM 53.1 °F - 49.5 °F 88% 30.01 in 7.0 mi North 8.1 mph - N/A   Unknown
8:55 AM 53.1 °F - 49.5 °F 88% 30.01 in 10.0 mi North 5.8 mph - N/A   Unknown
9:15 AM 53.4 °F - 49.8 °F 88% 30.01 in 10.0 mi North 6.9 mph - N/A   Unknown
9:35 AM 53.2 °F - 49.5 °F 87% 30.01 in 10.0 mi North 9.2 mph - N/A   Unknown
9:55 AM 53.6 °F - 49.8 °F 87% 30.01 in 7.0 mi North 6.9 mph - N/A   Unknown
10:15 AM 53.6 °F - 49.8 °F 87% 30.01 in 7.0 mi North - - N/A   Unknown
10:35 AM 53.2 °F - 49.3 °F 86% 30.01 in 7.0 mi North 6.9 mph - N/A   Unknown
10:55 AM 53.6 °F - 49.6 °F 86% 30.01 in 10.0 mi North 6.9 mph - N/A   Unknown
11:15 AM 53.2 °F - 49.5 °F 87% 30.00 in 5.0 mi North 6.9 mph - N/A   Mist
11:35 AM 53.6 °F - 50.0 °F 88% 30.00 in 4.0 mi NNW 6.9 mph - N/A   Mist
11:55 AM 53.8 °F - 49.8 °F 86% 29.99 in 10.0 mi NNW 8.1 mph - N/A   Unknown
12:20 PM 54.3 °F - 49.6 °F 84% 29.98 in 10.0 mi North - - N/A   Unknown
12:40 PM 53.8 °F - 49.1 °F 84% 29.98 in 10.0 mi NNW 6.9 mph - N/A   Unknown
12:55 PM 53.1 °F - 48.6 °F 85% 29.98 in 10.0 mi NNW 6.9 mph - N/A   Unknown
1:15 PM 52.7 °F - 48.4 °F 85% 29.98 in 7.0 mi NNW 8.1 mph - 0.01 in Rain Rain
1:35 PM 52.2 °F - 48.4 °F 87% 29.98 in 7.0 mi NNW 9.2 mph - 0.03 in Rain Rain
1:55 PM 51.4 °F - 47.7 °F 87% 29.98 in 10.0 mi NNW 6.9 mph - 0.03 in   Unknown
2:15 PM 51.3 °F - 47.7 °F 87% 29.97 in 10.0 mi North 8.1 mph - N/A Rain Light Rain
2:40 PM 51.1 °F - 47.7 °F 88% 29.98 in 7.0 mi NNW 9.2 mph - 0.02 in Rain Light Rain
2:55 PM 50.9 °F - 47.5 °F 88% 29.98 in 10.0 mi NNW 11.5 mph - 0.03 in   Drizzle
3:15 PM 50.2 °F - 46.9 °F 89% 29.98 in 10.0 mi NNW 9.2 mph - N/A   Light Drizzle
3:35 PM 49.3 °F - 45.9 °F 88% 29.99 in 10.0 mi NNW 9.2 mph - N/A Rain Rain
3:55 PM 48.6 °F - 45.0 °F 87% 29.99 in 7.0 mi NNW 12.7 mph - N/A Rain Light Rain
4:15 PM 48.2 °F - 44.6 °F 87% 30.00 in 10.0 mi North 8.1 mph - 0.01 in Rain Light Rain
4:35 PM 48.0 °F - 44.4 °F 87% 30.00 in 10.0 mi NNW 10.4 mph 16.1 mph 0.01 in   Drizzle
4:55 PM 47.5 °F - 43.7 °F 87% 30.00 in 10.0 mi North 10.4 mph 17.3 mph 0.01 in   Overcast
5:15 PM 47.3 °F - 43.7 °F 87% 30.00 in 10.0 mi NNW 10.4 mph - N/A   Drizzle
5:35 PM 47.3 °F - 43.7 °F 87% 30.00 in 10.0 mi NNW 6.9 mph - N/A   Overcast
5:55 PM 46.8 °F - 43.2 °F 87% 30.00 in 10.0 mi NNW 12.7 mph 18.4 mph N/A   Overcast
6:15 PM 46.4 °F 41.5 °F 42.8 °F 87% 30.01 in 10.0 mi NNW 10.4 mph - N/A   Overcast
6:35 PM 45.9 °F 40.4 °F 42.6 °F 88% 30.00 in 10.0 mi North 11.5 mph 19.6 mph N/A   Overcast
6:55 PM 45.7 °F 41.0 °F 42.4 °F 88% 30.01 in 10.0 mi NNW 9.2 mph - N/A   Overcast
7:15 PM 45.7 °F 40.6 °F 42.4 °F 88% 30.01 in 10.0 mi NNW 10.4 mph - N/A   Overcast
7:35 PM 45.5 °F 41.8 °F 42.3 °F 88% 30.02 in 7.0 mi North 6.9 mph - N/A   Overcast
7:55 PM 45.5 °F 41.3 °F 42.3 °F 88% 30.02 in 7.0 mi NNW 8.1 mph - N/A   Overcast
8:15 PM 45.5 °F 39.9 °F 42.3 °F 88% 30.03 in 7.0 mi North 11.5 mph 16.1 mph N/A   Overcast
8:35 PM 45.5 °F 41.8 °F 42.1 °F 88% 30.03 in 7.0 mi North 6.9 mph - N/A   Overcast
8:55 PM 45.5 °F 41.8 °F 42.3 °F 88% 30.04 in 7.0 mi North 6.9 mph - N/A   Overcast
9:15 PM 45.5 °F 40.3 °F 42.1 °F 88% 30.05 in 7.0 mi North 10.4 mph - N/A   Overcast
9:35 PM 45.5 °F 40.3 °F 41.9 °F 87% 30.05 in 10.0 mi NNW 10.4 mph - N/A   Overcast
9:55 PM 45.5 °F 41.3 °F 41.9 °F 87% 30.05 in 10.0 mi NNW 8.1 mph - N/A   Overcast
10:15 PM 45.1 °F 40.3 °F 41.9 °F 88% 30.05 in 10.0 mi NNW 9.2 mph - N/A   Overcast
10:35 PM 45.1 °F 40.8 °F 41.9 °F 88% 30.05 in 10.0 mi NNW 8.1 mph - N/A   Overcast
10:55 PM 45.1 °F 42.0 °F 41.5 °F 87% 30.05 in 10.0 mi North 5.8 mph - N/A   Overcast
11:15 PM 45.1 °F 42.8 °F 41.5 °F 87% 30.04 in 10.0 mi North 4.6 mph - N/A   Overcast
11:35 PM 45.1 °F 42.0 °F 41.9 °F 88% 30.04 in 10.0 mi North 5.8 mph - N/A   Overcast
11:55 PM 45.1 °F 42.8 °F 41.9 °F 88% 30.04 in 7.0 mi North 4.6 mph - N/A   Overcast